Time;durP1;ratioP1;P1;durP2;ratioP2;P2;SDS_P1;SDS_P2;PMS_P1;PMS_P2;Temp;Humidity;BMP_temperature;BMP_pressure;BME280_temperature;BME280_humidity;BME280_pressure;Samples;Min_cycle;Max_cycle;Signal;HPM_P1;HPM_P2
2022/08/28 00:00:38;;;;;;;6.47;4.15;;;;;;;24.26;67.60;98861.75;4500952;31;33649;-75
2022/08/28 00:03:08;;;;;;;7.75;4.40;;;;;;;23.74;69.58;98845.19;4499500;31;34567;-75
2022/08/28 00:05:38;;;;;;;14.02;5.72;;;;;;;23.23;72.94;98854.97;4499912;31;34659;-75
2022/08/28 00:08:09;;;;;;;7.15;4.30;;;;;;;23.34;72.01;98854.22;4495137;31;33581;-75
2022/08/28 00:10:38;;;;;;;10.02;4.22;;;;;;;22.99;73.05;98846.03;4502079;31;33988;-75
2022/08/28 00:13:14;;;;;;;9.75;4.37;;;;;;;23.38;72.09;98833.56;4501365;31;34212;-75
2022/08/28 00:15:42;;;;;;;7.05;4.10;;;;;;;23.34;71.51;98840.09;4502307;31;34530;-75
2022/08/28 00:18:10;;;;;;;6.47;4.22;;;;;;;22.56;74.64;98849.03;4501553;31;33782;-75
2022/08/28 00:20:39;;;;;;;11.88;4.35;;;;;;;22.49;75.12;98857.37;4501196;31;33911;-76
2022/08/28 00:23:07;;;;;;;4.97;3.33;;;;;;;22.81;72.66;98867.59;4501119;31;35855;-75
2022/08/28 00:25:35;;;;;;;7.45;3.83;;;;;;;22.92;71.33;98872.16;4501958;31;34572;-75
2022/08/28 00:28:06;;;;;;;6.97;4.12;;;;;;;22.44;73.24;98867.44;4501319;31;34692;-75
2022/08/28 00:30:41;;;;;;;9.98;4.18;;;;;;;22.37;73.09;98865.31;4500871;31;34692;-75
2022/08/28 00:33:13;;;;;;;5.95;3.22;;;;;;;22.51;71.73;98871.38;4498621;31;35026;-75
2022/08/28 00:35:42;;;;;;;6.65;3.05;;;;;;;22.97;69.39;98862.06;4500866;31;34462;-76
2022/08/28 00:38:11;;;;;;;7.97;3.50;;;;;;;22.68;70.26;98866.75;4498120;31;33737;-75
2022/08/28 00:40:41;;;;;;;5.57;3.03;;;;;;;22.43;69.62;98860.47;4499328;31;33989;-75
2022/08/28 00:43:24;;;;;;;7.68;3.72;;;;;;;22.73;69.31;98867.28;4501007;31;35031;-75
2022/08/28 00:45:52;;;;;;;7.32;3.42;;;;;;;22.48;70.58;98857.47;4501920;31;34478;-75
2022/08/28 00:48:20;;;;;;;7.12;4.00;;;;;;;22.64;70.08;98862.59;4499386;31;33683;-75
2022/08/28 00:53:43;;;;;;;8.30;3.00;;;;;;;22.40;72.04;98860.66;4481692;31;35178;-75
2022/08/28 00:56:12;;;;;;;8.57;3.45;;;;;;;22.34;71.18;98845.13;4487619;31;34093;-75
2022/08/28 00:58:42;;;;;;;11.55;3.10;;;;;;;22.42;70.79;98840.19;4499158;31;33760;-75
2022/08/28 01:01:12;;;;;;;7.37;3.30;;;;;;;22.28;71.62;98840.25;4500668;31;33865;-75
2022/08/28 01:03:41;;;;;;;11.43;4.28;;;;;;;22.26;72.62;98837.69;4499010;31;35132;-76
2022/08/28 01:06:10;;;;;;;22.23;4.03;;;;;;;21.89;74.92;98844.56;4501758;31;34442;-74
2022/08/28 01:08:40;;;;;;;7.03;3.67;;;;;;;22.15;73.50;98843.69;4500063;31;33605;-74
2022/08/28 01:11:08;;;;;;;5.65;3.42;;;;;;;22.17;73.38;98848.06;4484620;32;33271;-75
2022/08/28 01:13:39;;;;;;;7.93;4.78;;;;;;;21.99;73.95;98848.31;4489595;31;35048;-75
2022/08/28 01:16:07;;;;;;;12.27;4.68;;;;;;;22.41;72.57;98840.28;4499197;31;33661;-75
2022/08/28 01:18:35;;;;;;;15.95;5.40;;;;;;;22.00;74.35;98849.16;4498567;31;34569;-75
2022/08/28 01:21:10;;;;;;;12.88;4.32;;;;;;;22.04;74.42;98856.84;4500464;31;33904;-75
2022/08/28 01:23:59;;;;;;;8.23;4.72;;;;;;;22.42;72.73;98857.91;4499126;31;35014;-75
2022/08/28 01:26:28;;;;;;;6.68;3.53;;;;;;;22.34;72.80;98858.41;4500694;31;35301;-75
2022/08/28 01:28:58;;;;;;;10.60;3.67;;;;;;;22.66;71.32;98860.69;4500759;31;34531;-74
2022/08/28 01:31:28;;;;;;;11.40;3.47;;;;;;;22.10;73.04;98869.66;4499531;31;33713;-74
2022/08/28 01:34:00;;;;;;;7.87;3.22;;;;;;;22.09;72.05;98875.06;4498761;31;35936;-75
2022/08/28 01:36:29;;;;;;;4.28;2.62;;;;;;;22.40;70.74;98873.94;4501461;31;34439;-75
2022/08/28 01:39:06;;;;;;;7.50;3.25;;;;;;;22.19;70.79;98868.22;4500681;31;33650;-74
2022/08/28 01:41:38;;;;;;;5.70;3.17;;;;;;;22.00;71.42;98868.56;4499112;31;34053;-75
2022/08/28 01:44:07;;;;;;;4.18;2.60;;;;;;;21.98;72.01;98864.34;4500504;31;35051;-75
2022/08/28 01:46:35;;;;;;;7.95;3.10;;;;;;;21.99;71.24;98866.88;4500277;31;34346;-74
2022/08/28 01:49:03;;;;;;;8.55;2.87;;;;;;;21.45;74.13;98866.78;4499916;31;33661;-75
2022/08/28 01:51:31;;;;;;;8.25;2.97;;;;;;;21.58;74.24;98862.44;4500132;31;33916;-75
2022/08/28 01:54:05;;;;;;;3.20;1.92;;;;;;;21.41;74.88;98860.84;4499125;31;34918;-74
2022/08/28 01:56:34;;;;;;;3.92;2.50;;;;;;;21.48;73.86;98862.19;4500411;31;35121;-74
2022/08/28 01:59:05;;;;;;;10.20;2.90;;;;;;;21.34;74.22;98860.38;4500454;31;33759;-75
2022/08/28 02:01:34;;;;;;;6.00;2.90;;;;;;;21.11;75.50;98860.97;4500485;31;33883;-75
2022/08/28 02:04:03;;;;;;;4.57;2.72;;;;;;;21.27;75.54;98851.09;4482571;31;35004;-75
2022/08/28 02:06:31;;;;;;;4.70;2.20;;;;;;;21.43;74.60;98845.69;4484264;32;34442;-75
2022/08/28 02:08:59;;;;;;;4.53;2.80;;;;;;;21.16;76.68;98843.84;4489514;31;33804;-74
2022/08/28 02:11:29;;;;;;;7.72;3.37;;;;;;;21.21;76.34;98841.75;4500898;31;33983;-74
2022/08/28 02:13:57;;;;;;;6.87;3.35;;;;;;;21.30;75.60;98842.09;4496172;31;34941;-74
2022/08/28 02:16:27;;;;;;;5.65;2.53;;;;;;;21.40;75.21;98849.38;4495841;31;34677;-75
2022/08/28 02:18:55;;;;;;;4.30;2.62;;;;;;;21.51;74.79;98850.53;4499527;31;33744;-75
2022/08/28 02:21:24;;;;;;;6.62;3.28;;;;;;;21.50;74.78;98843.56;4486935;31;34017;-74
2022/08/28 02:23:52;;;;;;;14.45;3.35;;;;;;;21.47;74.84;98846.38;4499984;31;35130;-75
2022/08/28 02:26:20;;;;;;;5.00;2.87;;;;;;;21.20;75.47;98832.09;4500890;31;34321;-75
2022/08/28 02:28:48;;;;;;;4.35;2.80;;;;;;;21.55;73.97;98822.91;4498242;31;34622;-75
2022/08/28 02:31:16;;;;;;;4.80;2.97;;;;;;;21.64;73.50;98824.97;4500769;31;33926;-75
2022/08/28 02:33:44;;;;;;;5.78;3.10;;;;;;;21.81;72.24;98833.59;4502087;31;35893;-75
2022/08/28 02:36:13;;;;;;;5.85;3.40;;;;;;;21.78;72.50;98830.22;4503012;31;35220;-75
2022/08/28 02:38:43;;;;;;;7.12;3.28;;;;;;;21.62;73.31;98826.87;4500217;31;33647;-75
2022/08/28 02:41:11;;;;;;;5.35;3.33;;;;;;;21.92;73.30;98826.66;4501670;31;33935;-76
2022/08/28 02:43:39;;;;;;;5.55;2.83;;;;;;;21.76;75.04;98832.12;4500933;31;35866;-75
2022/08/28 02:46:08;;;;;;;5.82;2.97;;;;;;;21.75;74.83;98845.47;4487321;31;33810;-75
2022/08/28 02:48:37;;;;;;;6.30;3.28;;;;;;;22.15;72.61;98862.25;4501773;31;34291;-74
2022/08/28 02:51:12;;;;;;;6.75;2.87;;;;;;;21.48;74.49;98871.94;4501753;31;34595;-75
2022/08/28 02:53:40;;;;;;;4.72;2.87;;;;;;;21.46;74.32;98871.16;4501769;31;34821;-74
2022/08/28 02:56:09;;;;;;;8.15;3.30;;;;;;;21.43;75.00;98858.94;4501496;31;34469;-74
2022/08/28 02:58:38;;;;;;;5.72;2.97;;;;;;;21.08;77.81;98850.56;4500441;31;34360;-75
2022/08/28 03:01:09;;;;;;;5.47;3.25;;;;;;;21.20;77.56;98852.44;4501825;31;34045;-75
2022/08/28 03:03:38;;;;;;;6.30;3.10;;;;;;;21.46;76.16;98856.13;4501019;31;35287;-75
2022/08/28 03:06:10;;;;;;;4.93;2.95;;;;;;;21.04;78.05;98863.13;4501833;31;35369;-74
2022/08/28 03:08:40;;;;;;;6.43;3.22;;;;;;;21.18;77.73;98864.94;4501925;31;32897;-75
2022/08/28 03:11:09;;;;;;;5.20;3.37;;;;;;;20.89;78.71;98864.91;4501305;31;32781;-75
2022/08/28 03:13:37;;;;;;;5.25;3.22;;;;;;;21.05;78.44;98862.16;4501608;31;35967;-75
2022/08/28 03:16:05;;;;;;;7.60;3.60;;;;;;;20.90;79.09;98856.03;4502446;31;34491;-74
2022/08/28 03:18:33;;;;;;;5.93;3.15;;;;;;;20.96;79.38;98853.00;4497410;31;33660;-75
2022/08/28 03:21:02;;;;;;;10.63;3.83;;;;;;;21.06;78.54;98857.75;4501694;31;33995;-75
2022/08/28 03:23:30;;;;;;;5.65;3.40;;;;;;;21.21;78.03;98856.78;4501706;31;35007;-75
2022/08/28 03:26:01;;;;;;;7.68;3.50;;;;;;;21.30;77.39;98869.47;4502440;31;34991;-74
2022/08/28 03:28:37;;;;;;;10.43;3.62;;;;;;;21.00;78.62;98853.66;4500635;31;32867;-75
2022/08/28 03:31:07;;;;;;;5.93;3.62;;;;;;;21.18;78.17;98851.69;4502673;31;34807;-74
2022/08/28 03:33:36;;;;;;;6.35;3.42;;;;;;;21.33;76.60;98858.66;4498915;31;35918;-74
2022/08/28 03:36:10;;;;;;;7.15;3.75;;;;;;;21.31;77.23;98865.84;4472128;32;34477;-76
2022/08/28 03:38:40;;;;;;;6.15;3.60;;;;;;;21.55;75.71;98862.66;4481497;32;34221;-74
2022/08/28 03:41:16;;;;;;;7.12;3.53;;;;;;;21.10;78.14;98851.31;4485093;32;34797;-74
2022/08/28 03:43:44;;;;;;;8.60;4.40;;;;;;;21.17;77.24;98844.69;4482096;31;34313;-75
2022/08/28 03:46:21;;;;;;;8.18;3.45;;;;;;;21.85;74.30;98843.06;4489722;31;34468;-74
2022/08/28 03:48:52;;;;;;;12.13;3.80;;;;;;;21.69;74.65;98844.06;4485331;32;33875;-74
2022/08/28 03:51:23;;;;;;;12.30;4.07;;;;;;;21.62;74.50;98841.87;4485277;32;33153;-73
2022/08/28 03:53:58;;;;;;;6.18;3.53;;;;;;;21.28;76.47;98842.19;4472874;32;35019;-74
2022/08/28 03:56:28;;;;;;;5.90;3.45;;;;;;;21.56;75.05;98845.78;4499236;31;35332;-74
2022/08/28 03:58:59;;;;;;;7.70;3.55;;;;;;;21.09;77.51;98834.59;4501163;31;33343;-74
2022/08/28 04:01:27;;;;;;;8.25;3.78;;;;;;;21.65;74.87;98831.94;4491817;31;33871;-74
2022/08/28 04:03:56;;;;;;;8.27;3.42;;;;;;;21.07;77.18;98825.88;4485080;32;35027;-74
2022/08/28 04:06:24;;;;;;;10.30;3.37;;;;;;;21.92;73.40;98833.78;4486199;32;34642;-74
2022/08/28 04:08:52;;;;;;;6.78;3.60;;;;;;;22.13;72.20;98835.00;4486237;32;33721;-74
2022/08/28 04:11:21;;;;;;;8.27;3.70;;;;;;;21.40;75.40;98830.00;4497546;31;33901;-75
2022/08/28 04:13:49;;;;;;;6.62;3.80;;;;;;;20.80;78.71;98833.72;4501896;31;35048;-75
2022/08/28 04:16:18;;;;;;;6.40;2.97;;;;;;;22.01;73.24;98827.84;4502034;31;34449;-76
2022/08/28 04:18:47;;;;;;;5.28;3.65;;;;;;;22.15;71.45;98819.84;4498037;31;34653;-76
2022/08/28 04:21:22;;;;;;;8.02;3.35;;;;;;;21.30;75.22;98831.50;4485021;32;34837;-76
2022/08/28 04:23:51;;;;;;;6.15;3.08;;;;;;;21.22;75.18;98824.06;4485105;32;35030;-77
2022/08/28 04:26:22;;;;;;;7.20;3.58;;;;;;;20.95;77.09;98831.94;4486100;32;35372;-73
2022/08/28 04:28:51;;;;;;;5.45;3.70;;;;;;;21.14;76.71;98831.62;4485158;32;33668;-76
2022/08/28 04:31:22;;;;;;;11.00;3.60;;;;;;;20.83;77.70;98833.53;4487584;31;33981;-76
2022/08/28 04:34:01;;;;;;;9.63;4.00;;;;;;;21.38;75.86;98845.13;4501854;31;35872;-75
2022/08/28 04:36:29;;;;;;;8.18;3.97;;;;;;;21.71;73.66;98844.81;4499917;31;35146;-75
2022/08/28 04:38:57;;;;;;;7.37;3.35;;;;;;;20.61;79.27;98850.72;4500810;31;34477;-73
2022/08/28 04:41:27;;;;;;;7.57;3.72;;;;;;;21.49;75.75;98845.31;4501809;31;33937;-75
2022/08/28 04:43:56;;;;;;;7.60;3.58;;;;;;;21.48;75.21;98848.09;4500613;31;34991;-78
2022/08/28 04:46:24;;;;;;;8.18;3.62;;;;;;;20.92;77.92;98854.12;4500500;31;35304;-73
2022/08/28 04:48:54;;;;;;;6.18;3.42;;;;;;;20.95;78.44;98855.75;4501728;31;33548;-74
2022/08/28 04:51:22;;;;;;;7.12;3.60;;;;;;;21.81;74.19;98862.75;4501909;31;34742;-76
2022/08/28 04:53:50;;;;;;;7.07;4.00;;;;;;;21.51;75.36;98856.69;4500334;31;35934;-72
2022/08/28 04:56:18;;;;;;;8.95;4.00;;;;;;;20.83;81.49;98855.56;4474710;31;33787;-75
2022/08/28 04:58:46;;;;;;;6.32;3.47;;;;;;;22.14;73.88;98860.53;4501832;31;33661;-72
2022/08/28 05:01:18;;;;;;;7.60;3.08;;;;;;;21.83;75.81;98866.16;4501700;31;32711;-74
2022/08/28 05:03:47;;;;;;;7.43;3.70;;;;;;;22.19;74.14;98865.56;4501721;31;35019;-72
2022/08/28 05:06:15;;;;;;;7.62;3.65;;;;;;;21.98;76.05;98867.81;4500426;31;33403;-72
2022/08/28 05:08:43;;;;;;;6.45;3.33;;;;;;;22.84;72.26;98875.34;4501621;31;33536;-78
2022/08/28 05:11:18;;;;;;;6.85;3.45;;;;;;;22.47;74.09;98872.56;4500513;31;33819;-72
2022/08/28 05:14:08;;;;;;;8.05;3.53;;;;;;;21.78;78.47;98874.44;4500584;31;36033;-73
2022/08/28 05:16:47;;;;;;;19.50;3.58;;;;;;;22.04;79.81;98877.16;4500488;31;35246;-74
2022/08/28 05:19:17;;;;;;;7.20;4.12;;;;;;;22.67;73.98;98883.63;4501382;31;33736;-73
2022/08/28 05:21:46;;;;;;;7.50;3.30;;;;;;;22.80;69.60;98873.00;4501670;31;33314;-73
2022/08/28 05:24:14;;;;;;;8.70;3.70;;;;;;;23.16;68.00;98868.81;4500307;31;36032;-74
2022/08/28 05:26:42;;;;;;;5.45;3.50;;;;;;;23.62;66.30;98865.53;4499681;31;34341;-74
2022/08/28 05:29:15;;;;;;;6.80;3.42;;;;;;;23.69;65.24;98860.63;4500738;31;34377;-74
2022/08/28 05:31:43;;;;;;;5.10;3.45;;;;;;;23.77;65.13;98855.56;4500153;31;34974;-73
2022/08/28 05:34:14;;;;;;;6.53;3.65;;;;;;;23.99;63.83;98857.53;4500244;31;35750;-74
2022/08/28 05:36:42;;;;;;;8.48;3.47;;;;;;;23.59;65.80;98866.56;4501325;31;35277;-71
2022/08/28 05:39:11;;;;;;;7.05;3.72;;;;;;;23.75;67.48;98850.34;4487376;31;33940;-72
2022/08/28 05:41:42;;;;;;;5.00;3.10;;;;;;;24.54;63.47;98857.91;4487365;31;34047;-74
2022/08/28 05:44:12;;;;;;;7.22;3.25;;;;;;;24.84;62.76;98868.00;4499452;31;34823;-72
2022/08/28 05:46:43;;;;;;;5.90;3.20;;;;;;;25.47;60.12;98868.41;4500282;31;33574;-72
2022/08/28 05:49:13;;;;;;;8.10;3.28;;;;;;;25.29;61.23;98867.19;4487270;31;33996;-74
2022/08/28 05:51:42;;;;;;;4.55;2.78;;;;;;;25.67;58.94;98863.28;4500946;31;34603;-73
2022/08/28 05:54:11;;;;;;;6.20;3.40;;;;;;;25.10;61.21;98863.31;4501140;31;35033;-72
2022/08/28 05:56:40;;;;;;;399.17;79.82;;;;;;;25.58;59.01;98867.56;4501087;31;34448;-72
2022/08/28 05:59:11;;;;;;;8.38;3.55;;;;;;;25.82;59.59;98874.53;4501108;31;34692;-76
2022/08/28 06:01:43;;;;;;;4.70;2.85;;;;;;;25.95;57.10;98869.09;4491179;31;34705;-75
2022/08/28 06:04:14;;;;;;;6.75;3.33;;;;;;;26.04;58.69;98874.50;4495671;31;35968;-75
2022/08/28 06:06:43;;;;;;;6.85;3.30;;;;;;;25.62;58.01;98881.47;4500179;31;34608;-74
2022/08/28 06:09:12;;;;;;;6.57;3.30;;;;;;;25.77;57.16;98885.59;4487489;31;33059;-72
2022/08/28 06:11:43;;;;;;;40.38;9.73;;;;;;;26.38;58.46;98882.38;4492236;31;33952;-77
2022/08/28 06:14:16;;;;;;;18.15;4.30;;;;;;;26.58;56.70;98882.53;4499021;31;35999;-76
2022/08/28 06:16:47;;;;;;;6.53;2.92;;;;;;;27.79;54.29;98884.53;4491628;31;34714;-74
2022/08/28 06:19:16;;;;;;;6.37;2.97;;;;;;;28.09;48.49;98877.44;4494249;31;33814;-73
2022/08/28 06:21:45;;;;;;;8.25;3.00;;;;;;;28.10;48.45;98880.00;4500023;31;33868;-72
2022/08/28 06:24:13;;;;;;;8.52;3.80;;;;;;;28.21;48.03;98880.84;4500000;31;35067;-73
2022/08/28 06:26:42;;;;;;;11.98;3.75;;;;;;;28.91;46.76;98876.97;4500250;31;34928;-72
2022/08/28 06:29:12;;;;;;;68.68;10.85;;;;;;;28.57;46.84;98883.81;4499885;31;33846;-73
2022/08/28 06:31:41;;;;;;;37.30;8.00;;;;;;;27.65;52.40;98892.97;4499941;31;33359;-73
2022/08/28 06:34:09;;;;;;;6.50;3.03;;;;;;;27.36;51.54;98891.03;4499814;31;35120;-74
2022/08/28 06:36:43;;;;;;;5.93;2.40;;;;;;;27.41;50.00;98902.19;4498990;31;34449;-73
2022/08/28 06:39:13;;;;;;;5.97;3.22;;;;;;;26.44;52.63;98903.22;4499289;31;33476;-73
2022/08/28 06:41:42;;;;;;;12.55;3.55;;;;;;;27.23;49.56;98907.25;4499831;31;33826;-73
2022/08/28 06:44:13;;;;;;;4.22;2.62;;;;;;;26.77;53.52;98905.88;4500563;31;35114;-73
2022/08/28 06:46:41;;;;;;;11.00;3.28;;;;;;;26.77;53.11;98900.53;4498845;31;34411;-73
2022/08/28 06:49:10;;;;;;;7.87;3.62;;;;;;;27.73;50.51;98903.84;4500429;31;34640;-74
2022/08/28 06:51:38;;;;;;;12.25;4.15;;;;;;;27.19;51.02;98901.34;4495037;31;34727;-73
2022/08/28 06:54:06;;;;;;;6.95;3.28;;;;;;;26.48;52.39;98912.66;4494745;31;35174;-74
2022/08/28 06:56:34;;;;;;;8.30;3.40;;;;;;;26.12;54.42;98911.25;4499418;31;34395;-74
2022/08/28 06:59:02;;;;;;;10.77;3.33;;;;;;;26.51;52.83;98911.56;4499291;31;33833;-73
2022/08/28 07:01:33;;;;;;;5.87;2.90;;;;;;;27.58;52.39;98914.06;4498660;31;34749;-73
2022/08/28 07:04:08;;;;;;;13.77;2.92;;;;;;;28.06;51.84;98920.53;4500358;31;35747;-73
2022/08/28 07:06:39;;;;;;;4.93;2.80;;;;;;;28.79;51.79;98918.34;4497980;31;35109;-74
2022/08/28 07:09:09;;;;;;;6.00;3.17;;;;;;;29.12;48.83;98924.22;4489472;31;34469;-74
2022/08/28 07:11:38;;;;;;;5.28;3.30;;;;;;;29.08;49.07;98923.66;4488288;31;33979;-74
2022/08/28 07:14:06;;;;;;;9.75;3.33;;;;;;;27.64;53.17;98926.91;4498908;31;35017;-74
2022/08/28 07:16:39;;;;;;;5.10;3.05;;;;;;;27.45;54.15;98926.84;4499846;31;35319;-78
2022/08/28 07:19:09;;;;;;;6.62;3.37;;;;;;;27.66;55.81;98930.28;4501487;31;33786;-74
2022/08/28 07:21:42;;;;;;;6.93;3.47;;;;;;;28.17;54.58;98929.31;4500557;31;33966;-74
2022/08/28 07:24:13;;;;;;;5.90;3.50;;;;;;;28.57;52.58;98927.50;4501530;31;34795;-77
2022/08/28 07:26:42;;;;;;;6.07;2.92;;;;;;;30.21;48.83;98937.00;4499889;31;33768;-74
2022/08/28 07:29:11;;;;;;;6.65;3.45;;;;;;;29.57;50.17;98939.59;4501110;31;34473;-74
2022/08/28 07:31:41;;;;;;;9.77;3.33;;;;;;;30.34;48.61;98942.88;4499802;31;34737;-74
2022/08/28 07:34:11;;;;;;;5.35;3.17;;;;;;;30.11;47.60;98946.94;4500369;31;35045;-74
2022/08/28 07:36:40;;;;;;;6.00;3.47;;;;;;;30.00;50.52;98945.31;4499356;31;34465;-74
2022/08/28 07:39:09;;;;;;;5.93;2.90;;;;;;;30.38;47.63;98946.94;4498157;31;33594;-75
2022/08/28 07:41:39;;;;;;;5.45;3.50;;;;;;;30.08;49.25;98949.97;4492967;31;34598;-75
2022/08/28 07:46:58;;;;;;;5.65;3.37;;;;;;;30.55;46.13;98944.41;4501290;31;35330;-75
2022/08/28 07:49:26;;;;;;;5.18;2.85;;;;;;;29.55;47.95;98943.44;4492848;31;34502;-75
2022/08/28 07:51:54;;;;;;;6.57;3.10;;;;;;;29.77;47.32;98945.75;4494451;31;35201;-75
2022/08/28 07:54:22;;;;;;;7.05;3.40;;;;;;;28.89;50.54;98948.66;4500155;31;35002;-75
2022/08/28 07:56:51;;;;;;;18.70;10.32;;;;;;;29.47;51.41;98945.00;4486971;31;33463;-76
2022/08/28 07:59:19;;;;;;;46.05;25.65;;;;;;;29.94;48.75;98951.31;4502002;31;34531;-74
2022/08/28 08:01:50;;;;;;;39.65;17.08;;;;;;;30.31;50.48;98953.88;4500945;31;34019;-74
2022/08/28 08:04:19;;;;;;;51.03;23.90;;;;;;;30.03;50.10;98963.81;4500927;31;35034;-76
2022/08/28 08:06:47;;;;;;;31.27;14.35;;;;;;;30.14;49.35;98960.91;4490392;31;34547;-75
2022/08/28 08:09:16;;;;;;;15.90;7.60;;;;;;;29.49;49.87;98961.78;4499755;31;33853;-75
2022/08/28 08:11:46;;;;;;;17.10;8.75;;;;;;;30.37;48.40;98971.25;4499485;31;33895;-74
2022/08/28 08:14:16;;;;;;;10.80;6.50;;;;;;;28.65;51.78;98964.31;4500945;31;34254;-75
2022/08/28 08:16:44;;;;;;;11.80;5.93;;;;;;;30.40;47.90;98963.75;4499335;31;34480;-76
2022/08/28 08:19:14;;;;;;;82.88;53.75;;;;;;;30.58;48.00;98965.59;4502000;31;34386;-76
2022/08/28 08:21:44;;;;;;;8.88;6.05;;;;;;;30.29;47.22;98966.63;4486502;31;33164;-76
2022/08/28 08:24:14;;;;;;;7.82;5.60;;;;;;;30.28;46.92;98964.94;4499642;31;34203;-77
2022/08/28 08:26:48;;;;;;;6.73;4.17;;;;;;;31.52;45.53;98965.00;4500038;31;34517;-76
2022/08/28 08:29:30;;;;;;;5.65;3.60;;;;;;;30.54;47.90;98974.97;4487885;31;33035;-77
2022/08/28 08:32:04;;;;;;;8.95;6.28;;;;;;;31.34;44.45;98967.72;4487213;31;33203;-77
2022/08/28 08:34:37;;;;;;;8.83;5.30;;;;;;;30.91;45.22;98971.25;4501776;31;35133;-76
2022/08/28 08:37:06;;;;;;;5.10;3.33;;;;;;;31.32;44.12;98968.88;4501124;31;35213;-76
2022/08/28 08:39:35;;;;;;;6.10;3.95;;;;;;;31.29;43.60;98969.19;4499953;31;33701;-76
2022/08/28 08:42:06;;;;;;;7.97;4.50;;;;;;;30.43;45.31;98973.34;4500969;31;33938;-76
2022/08/28 08:44:40;;;;;;;7.90;5.25;;;;;;;31.19;45.82;98969.31;4499253;31;34977;-76
2022/08/28 08:47:38;;;;;;;5.50;3.83;;;;;;;31.72;46.17;98970.97;4496179;31;34644;-76
2022/08/28 08:50:31;;;;;;;6.62;3.40;;;;;;;31.74;43.87;98968.97;4485607;32;34368;-76
2022/08/28 08:53:33;;;;;;;7.18;3.65;;;;;;;30.97;45.50;98970.66;4490467;31;34806;-76
2022/08/28 08:56:04;;;;;;;10.07;7.28;;;;;;;31.72;44.40;98970.16;4483974;32;35035;-75
2022/08/28 08:58:37;;;;;;;7.60;4.18;;;;;;;31.32;44.97;98974.25;4497786;31;34530;-76
2022/08/28 09:01:13;;;;;;;12.05;7.10;;;;;;;31.40;44.40;98966.25;4500033;31;33655;-76
2022/08/28 09:03:44;;;;;;;5.10;3.50;;;;;;;32.34;42.04;98971.72;4485454;31;34007;-76
2022/08/28 09:06:40;;;;;;;8.73;3.90;;;;;;;32.30;41.61;98969.34;4485223;32;35505;-77
2022/08/28 09:09:26;;;;;;;7.37;4.30;;;;;;;32.17;41.21;98970.81;4471346;31;34377;-77
2022/08/28 09:11:58;;;;;;;7.05;4.68;;;;;;;33.03;39.60;98965.03;4487295;31;33622;-79
2022/08/28 09:14:26;;;;;;;6.90;4.15;;;;;;;32.95;39.91;98969.59;4501362;31;33918;-78
2022/08/28 09:16:57;;;;;;;11.10;4.28;;;;;;;31.91;42.02;98977.97;4501492;31;34327;-80
2022/08/28 09:19:25;;;;;;;12.10;5.12;;;;;;;31.97;42.95;98978.31;4500227;31;34389;-76
2022/08/28 09:21:53;;;;;;;9.07;3.72;;;;;;;31.07;43.89;98976.78;4497807;31;34937;-77
2022/08/28 09:24:27;;;;;;;8.27;5.00;;;;;;;31.88;41.10;98980.97;4485794;32;34046;-78
2022/08/28 09:26:59;;;;;;;7.68;4.82;;;;;;;31.85;41.69;98986.66;4496392;31;33728;-79
2022/08/28 09:29:36;;;;;;;6.10;3.55;;;;;;;31.36;44.57;98989.94;4495786;31;34657;-79
2022/08/28 09:32:24;;;;;;;8.40;3.60;;;;;;;32.55;41.31;98993.66;4488956;31;33525;-80
2022/08/28 09:35:13;;;;;;;5.43;3.47;;;;;;;31.84;41.54;98994.94;4500567;31;34734;-81
2022/08/28 09:37:42;;;;;;;6.80;3.40;;;;;;;32.01;42.09;98993.13;4494182;31;35058;-76
2022/08/28 09:43:28;;;;;;;4.65;3.58;;;;;;;32.46;41.92;98984.72;4498441;31;34384;-78
2022/08/28 09:46:04;;;;;;;6.35;4.18;;;;;;;32.63;40.47;98982.91;4500359;31;34752;-77
2022/08/28 09:48:34;;;;;;;68.25;48.63;;;;;;;33.68;37.20;98990.25;4487824;31;35233;-78
2022/08/28 09:51:12;;;;;;;8.43;3.95;;;;;;;33.27;39.98;98984.94;4485158;31;34521;-76
2022/08/28 09:53:53;;;;;;;7.12;3.60;;;;;;;33.09;36.41;98981.53;4498795;31;33998;-75
2022/08/28 09:56:32;;;;;;;6.22;3.25;;;;;;;33.21;36.52;98980.22;4500224;31;34732;-76
2022/08/28 09:59:07;;;;;;;9.63;3.50;;;;;;;32.59;37.91;98989.63;4499694;31;35886;-78
2022/08/28 10:01:41;;;;;;;4.70;3.20;;;;;;;32.03;40.46;98983.03;4500879;31;34495;-76
2022/08/28 10:04:36;;;;;;;6.97;3.20;;;;;;;33.51;35.51;98986.72;4499123;31;34535;-76
2022/08/28 10:07:10;;;;;;;8.10;6.22;;;;;;;34.11;34.69;98988.03;4499524;31;33916;-78
2022/08/28 10:10:02;;;;;;;8.87;4.23;;;;;;;34.74;35.14;98988.88;4487771;31;35790;-77
2022/08/28 10:12:37;;;;;;;13.60;8.45;;;;;;;34.52;36.42;98985.13;4493188;31;34425;-86
2022/08/28 10:15:28;;;;;;;7.15;3.40;;;;;;;33.24;36.95;98982.59;4500143;31;33774;-77
2022/08/28 10:18:17;;;;;;;159.18;107.60;;;;;;;33.76;37.34;98976.75;4498704;31;33901;-77
2022/08/28 10:21:03;;;;;;;8.23;6.22;;;;;;;34.64;36.65;98982.84;4497820;31;34979;-80
2022/08/28 10:23:59;;;;;;;7.30;5.00;;;;;;;33.99;37.00;98975.94;4497983;31;35321;-79
2022/08/28 10:26:43;;;;;;;;;;;;;;;33.46;39.08;98981.00;4485729;32;34129;-79
2022/08/28 10:29:20;;;;;;;4.35;2.72;;;;;;;33.76;38.48;98970.47;4485011;31;34015;-77
2022/08/28 10:32:00;;;;;;;6.85;3.30;;;;;;;33.94;37.58;98975.66;4492156;31;35142;-76
2022/08/28 10:34:42;;;;;;;5.85;3.20;;;;;;;32.86;37.08;98977.69;4487306;31;35340;-78
2022/08/28 10:37:26;;;;;;;7.87;3.33;;;;;;;32.74;38.24;98970.97;4484650;32;33670;-77
2022/08/28 10:39:56;;;;;;;6.50;3.03;;;;;;;33.67;38.21;98966.13;4484989;31;33864;-78
2022/08/28 10:42:30;;;;;;;5.37;3.08;;;;;;;34.47;37.39;98967.78;4470973;32;35014;-78
2022/08/28 10:45:13;;;;;;;5.15;3.35;;;;;;;33.21;39.41;98967.56;4493126;31;35266;-78
2022/08/28 10:47:45;;;;;;;7.80;4.62;;;;;;;34.61;35.55;98964.28;4498915;31;33786;-77
2022/08/28 10:50:27;;;;;;;4.87;2.75;;;;;;;33.38;34.52;98959.44;4497075;31;33813;-76
2022/08/28 10:53:03;;;;;;;7.57;3.83;;;;;;;33.23;35.37;98959.28;4497180;31;34947;-76
2022/08/28 10:55:56;;;;;;;5.25;2.62;;;;;;;33.80;33.96;98963.72;4501389;31;35332;-76
2022/08/28 10:58:26;;;;;;;4.20;2.67;;;;;;;34.29;32.84;98966.19;4500258;31;33231;-75
2022/08/28 11:01:00;;;;;;;13.15;8.70;;;;;;;34.03;36.31;98961.09;4501691;31;34624;-77
2022/08/28 11:03:30;;;;;;;5.80;2.87;;;;;;;34.18;35.59;98964.75;4499872;31;35088;-76
2022/08/28 11:06:07;;;;;;;6.35;3.62;;;;;;;33.66;34.77;98957.19;4501440;31;35333;-77
2022/08/28 11:08:38;;;;;;;56.55;37.60;;;;;;;33.96;32.49;98960.94;4489523;31;33804;-77
2022/08/28 11:11:12;;;;;;;7.10;4.55;;;;;;;33.71;33.74;98962.91;4491457;31;33839;-76
2022/08/28 11:13:45;;;;;;;4.13;2.80;;;;;;;33.70;36.37;98961.22;4495662;31;34917;-77
2022/08/28 11:16:35;;;;;;;4.60;2.45;;;;;;;33.43;35.18;98966.00;4501221;31;34562;-77
2022/08/28 11:19:18;;;;;;;6.05;2.75;;;;;;;34.10;37.36;98967.47;4501162;31;33740;-78
2022/08/28 11:22:03;;;;;;;8.63;2.72;;;;;;;33.46;36.55;98964.81;4502115;31;33797;-77
2022/08/28 11:24:37;;;;;;;4.68;2.35;;;;;;;34.19;37.00;98965.59;4485290;32;35911;-78
2022/08/28 11:27:15;;;;;;;4.85;2.50;;;;;;;35.40;33.14;98958.53;4486471;31;34563;-76
2022/08/28 11:29:57;;;;;;;5.68;3.42;;;;;;;34.31;34.11;98960.59;4501523;31;33572;-77
2022/08/28 11:32:58;;;;;;;2.72;2.03;;;;;;;33.96;33.20;98965.50;4500404;31;33696;-76
2022/08/28 11:35:29;;;;;;;6.72;2.37;;;;;;;33.87;33.57;98963.84;4467360;31;34951;-76
2022/08/28 11:37:57;;;;;;;3.72;2.55;;;;;;;33.79;34.17;98964.72;4500933;31;34074;-77
2022/08/28 11:40:31;;;;;;;3.25;1.92;;;;;;;34.60;33.45;98961.75;4500905;31;33722;-77
2022/08/28 11:43:14;;;;;;;5.20;2.20;;;;;;;34.69;31.80;98960.66;4501318;31;34640;-77
2022/08/28 11:45:49;;;;;;;5.60;2.30;;;;;;;33.59;34.52;98964.28;4502180;31;35108;-77
2022/08/28 11:48:24;;;;;;;3.80;2.40;;;;;;;34.10;34.62;98966.63;4501155;31;35771;-77
2022/08/28 11:50:53;;;;;;;4.28;3.08;;;;;;;34.75;36.10;98958.13;4501331;31;33590;-78
2022/08/28 11:53:21;;;;;;;3.67;2.30;;;;;;;34.78;35.70;98953.38;4498661;31;33957;-78
2022/08/28 11:56:22;;;;;;;3.90;2.47;;;;;;;34.20;35.26;98953.75;4495819;31;34937;-77
2022/08/28 11:59:24;;;;;;;6.15;3.10;;;;;;;33.89;37.97;98953.72;4469274;31;34637;-79
2022/08/28 12:02:39;;;;;;;6.12;3.20;;;;;;;34.06;36.00;98955.34;4485942;32;34435;-78
2022/08/28 12:05:10;;;;;;;5.65;2.80;;;;;;;33.58;37.45;98954.47;4486130;31;34048;-78